Time;durP1;ratioP1;P1;durP2;ratioP2;P2;SDS_P1;SDS_P2;PMS_P1;PMS_P2;Temp;Humidity;BMP_temperature;BMP_pressure;BME280_temperature;BME280_humidity;BME280_pressure;Samples;Min_cycle;Max_cycle;Signal;HPM_P1;HPM_P2
2021/05/27 00:01:58;;;;;;;10.93;8.83;;;;;;;;;;5034691;28;20470;-58
2021/05/27 00:04:31;;;;;;;12.87;7.20;;;;;;;;;;5025952;28;20459;-58
2021/05/27 00:06:58;;;;;;;14.13;7.50;;;;;;;;;;5016974;28;20454;-57
2021/05/27 00:09:26;;;;;;;9.10;7.10;;;;;;;;;;5016292;28;20507;-55
2021/05/27 00:11:53;;;;;;;13.10;8.27;;;;;;;;;;5017156;28;20486;-56
2021/05/27 00:14:36;;;;;;;9.90;6.73;;;;;;;;;;5016412;28;20448;-60
2021/05/27 00:17:05;;;;;;;10.37;7.87;;;;;;;;;;5016992;28;20471;-48
2021/05/27 00:19:32;;;;;;;18.97;7.37;;;;;;;;;;5017229;28;20453;-56
2021/05/27 00:21:59;;;;;;;14.10;7.90;;;;;;;;;;5020159;28;20438;-55
2021/05/27 00:24:26;;;;;;;9.30;6.80;;;;;;;;;;5032803;28;20562;-59
2021/05/27 00:26:53;;;;;;;10.93;8.43;;;;;;;;;;5016674;28;20523;-56
2021/05/27 00:29:31;;;;;;;11.93;7.30;;;;;;;;;;5017172;28;20444;-53
2021/05/27 00:31:57;;;;;;;9.17;6.20;;;;;;;;;;5017054;28;20455;-58
2021/05/27 00:34:25;;;;;;;13.00;6.60;;;;;;;;;;5015320;28;20452;-54
2021/05/27 00:36:51;;;;;;;23.13;13.80;;;;;;;;;;5015814;28;20495;-55
2021/05/27 00:39:19;;;;;;;13.20;7.10;;;;;;;;;;5015958;28;20439;-54
2021/05/27 00:42:02;;;;;;;10.57;7.53;;;;;;;;;;5016745;28;20463;-56
2021/05/27 00:44:32;;;;;;;8.97;7.00;;;;;;;;;;5016330;28;20436;-51
2021/05/27 00:46:59;;;;;;;11.63;8.83;;;;;;;;;;5017442;28;20436;-54
2021/05/27 00:49:26;;;;;;;13.37;7.80;;;;;;;;;;5016471;28;20451;-49
2021/05/27 00:51:54;;;;;;;10.57;7.10;;;;;;;;;;5016746;28;20463;-52
2021/05/27 00:54:21;;;;;;;10.63;8.37;;;;;;;;;;5016695;28;20575;-56
2021/05/27 00:56:54;;;;;;;11.47;9.40;;;;;;;;;;5016130;28;20476;-51
2021/05/27 00:59:22;;;;;;;13.80;8.27;;;;;;;;;;5016929;28;20464;-53
2021/05/27 01:01:51;;;;;;;10.67;7.70;;;;;;;;;;5016720;28;20480;-50
2021/05/27 01:04:21;;;;;;;12.73;6.67;;;;;;;;;;5016122;28;20471;-56
2021/05/27 01:06:48;;;;;;;11.37;6.73;;;;;;;;;;5025399;28;20443;-49
2021/05/27 01:09:15;;;;;;;9.27;6.90;;;;;;;;;;5036093;28;20471;-52
2021/05/27 01:11:50;;;;;;;10.90;7.50;;;;;;;;;;5036760;28;20466;-50
2021/05/27 01:15:25;;;;;;;11.70;7.60;;;;;;;;;;5036565;28;20469;-54
2021/05/27 01:17:17;;;;;;;11.40;8.50;;;;;;;;;;5036857;28;20494;-55
2021/05/27 01:19:44;;;;;;;9.93;7.70;;;;;;;;;;5037022;28;20446;-57
2021/05/27 01:22:12;;;;;;;9.57;7.73;;;;;;;;;;5036927;28;20454;-53
2021/05/27 01:24:39;;;;;;;18.83;9.50;;;;;;;;;;5036733;28;20455;-54
2021/05/27 01:27:08;;;;;;;14.37;8.10;;;;;;;;;;5037066;28;20439;-53
2021/05/27 01:29:35;;;;;;;15.60;8.70;;;;;;;;;;5037191;28;20455;-54
2021/05/27 01:32:01;;;;;;;11.60;8.47;;;;;;;;;;5036862;28;20456;-55
2021/05/27 01:34:28;;;;;;;11.90;8.90;;;;;;;;;;5037035;28;20459;-53
2021/05/27 01:36:55;;;;;;;10.93;7.77;;;;;;;;;;5036609;28;20517;-56
2021/05/27 01:39:23;;;;;;;8.90;7.10;;;;;;;;;;5036928;28;20478;-55
2021/05/27 01:42:01;;;;;;;10.47;8.03;;;;;;;;;;5036565;28;20451;-52
2021/05/27 01:44:28;;;;;;;15.50;8.47;;;;;;;;;;5036711;28;20509;-55
2021/05/27 01:46:55;;;;;;;13.60;7.67;;;;;;;;;;5035985;28;20469;-56
2021/05/27 01:49:29;;;;;;;12.07;8.47;;;;;;;;;;5036763;28;20439;-57
2021/05/27 01:51:56;;;;;;;10.07;7.73;;;;;;;;;;5036125;28;20458;-55
2021/05/27 01:54:24;;;;;;;13.43;7.13;;;;;;;;;;5036409;28;20455;-53
2021/05/27 01:56:52;;;;;;;10.60;7.23;;;;;;;;;;5036325;28;20491;-54
2021/05/27 01:59:19;;;;;;;11.33;7.90;;;;;;;;;;5036292;28;20451;-55
2021/05/27 02:01:46;;;;;;;15.30;8.17;;;;;;;;;;5035887;28;20435;-55
2021/05/27 02:04:15;;;;;;;12.93;8.17;;;;;;;;;;5036259;28;20463;-58
2021/05/27 02:06:42;;;;;;;17.87;9.57;;;;;;;;;;5036416;28;20469;-51
2021/05/27 02:09:09;;;;;;;12.77;8.47;;;;;;;;;;5035948;28;20483;-56
2021/05/27 02:11:38;;;;;;;13.90;9.03;;;;;;;;;;5036293;28;20458;-57
2021/05/27 02:14:06;;;;;;;16.77;11.13;;;;;;;;;;5036257;28;20450;-55
2021/05/27 02:16:35;;;;;;;11.40;7.80;;;;;;;;;;5036696;28;20478;-54
2021/05/27 02:19:02;;;;;;;11.63;8.10;;;;;;;;;;5036194;28;20459;-49
2021/05/27 02:21:29;;;;;;;15.03;8.50;;;;;;;;;;5036378;28;20538;-53
2021/05/27 02:24:07;;;;;;;11.03;7.13;;;;;;;;;;5036285;28;20450;-55
2021/05/27 02:26:34;;;;;;;10.60;8.33;;;;;;;;;;5036070;28;20474;-57
2021/05/27 02:29:02;;;;;;;10.00;7.70;;;;;;;;;;5036823;28;20438;-56
2021/05/27 02:31:43;;;;;;;13.00;7.27;;;;;;;;;;5036067;28;20462;-54
2021/05/27 02:34:10;;;;;;;12.10;8.50;;;;;;;;;;5036009;28;20862;-52
2021/05/27 02:36:37;;;;;;;11.73;7.30;;;;;;;;;;5036055;28;20490;-53
2021/05/27 02:39:22;;;;;;;12.73;8.23;;;;;;;;;;5036242;28;20463;-53
2021/05/27 02:41:48;;;;;;;11.23;7.63;;;;;;;;;;5034334;28;20478;-55
2021/05/27 02:44:16;;;;;;;10.83;7.53;;;;;;;;;;5035801;28;20455;-56
2021/05/27 02:46:58;;;;;;;11.83;8.73;;;;;;;;;;5036172;28;20455;-54
2021/05/27 02:49:25;;;;;;;13.63;9.00;;;;;;;;;;5052547;28;20465;-54
2021/05/27 02:51:52;;;;;;;13.33;9.23;;;;;;;;;;5056200;28;20417;-57
2021/05/27 02:54:38;;;;;;;11.80;9.10;;;;;;;;;;5055920;28;20437;-57
2021/05/27 02:57:05;;;;;;;13.40;8.90;;;;;;;;;;5055478;28;20477;-52
2021/05/27 02:59:33;;;;;;;15.00;9.33;;;;;;;;;;5059473;28;20461;-52
2021/05/27 03:01:59;;;;;;;11.93;8.27;;;;;;;;;;5059245;28;20453;-53
2021/05/27 03:04:26;;;;;;;11.00;7.70;;;;;;;;;;5059240;28;20461;-52
2021/05/27 03:06:53;;;;;;;11.10;8.03;;;;;;;;;;5030662;28;20444;-49
2021/05/27 03:09:20;;;;;;;13.30;8.43;;;;;;;;;;5019306;28;20522;-52
2021/05/27 03:11:49;;;;;;;15.07;7.90;;;;;;;;;;5019074;28;20448;-52
2021/05/27 03:14:18;;;;;;;13.47;8.97;;;;;;;;;;5019151;28;20455;-54
2021/05/27 03:16:46;;;;;;;12.77;9.10;;;;;;;;;;5018917;28;20491;-57
2021/05/27 03:19:15;;;;;;;12.23;9.00;;;;;;;;;;5019752;28;20455;-54
2021/05/27 03:21:48;;;;;;;10.20;8.40;;;;;;;;;;5019510;28;20436;-53
2021/05/27 03:24:14;;;;;;;11.03;7.53;;;;;;;;;;5019104;28;20463;-48
2021/05/27 03:26:44;;;;;;;16.50;9.40;;;;;;;;;;5018796;28;20721;-54
2021/05/27 03:29:13;;;;;;;10.10;8.67;;;;;;;;;;5018767;28;20633;-53
2021/05/27 03:31:40;;;;;;;11.90;8.10;;;;;;;;;;5018703;28;20454;-52
2021/05/27 03:34:15;;;;;;;14.90;9.07;;;;;;;;;;5018869;28;20428;-57
2021/05/27 03:36:42;;;;;;;14.53;10.40;;;;;;;;;;5037643;28;20493;-52
2021/05/27 03:39:08;;;;;;;15.77;9.77;;;;;;;;;;5053502;28;20447;-57
2021/05/27 03:41:35;;;;;;;12.53;8.67;;;;;;;;;;5038108;28;20491;-53
2021/05/27 03:44:02;;;;;;;12.57;9.67;;;;;;;;;;5038552;28;20454;-53
2021/05/27 03:46:35;;;;;;;17.23;9.53;;;;;;;;;;5038432;28;20451;-57
2021/05/27 03:49:02;;;;;;;15.60;8.90;;;;;;;;;;5037910;28;20438;-51
2021/05/27 03:51:33;;;;;;;14.00;10.77;;;;;;;;;;5037885;28;20439;-56
2021/05/27 03:54:00;;;;;;;12.67;10.20;;;;;;;;;;5037902;28;20465;-56
2021/05/27 03:56:27;;;;;;;14.90;9.93;;;;;;;;;;5037614;28;20450;-54
2021/05/27 04:01:44;;;;;;;16.87;10.67;;;;;;;;;;5036723;28;20422;-56
2021/05/27 04:07:13;;;;;;;18.37;10.87;;;;;;;;;;5032984;28;20422;-53
2021/05/27 04:09:40;;;;;;;11.97;9.83;;;;;;;;;;5036178;28;20465;-53
2021/05/27 04:17:44;;;;;;;18.23;12.20;;;;;;;;;;5038160;28;20489;-56
2021/05/27 04:20:13;;;;;;;12.70;10.70;;;;;;;;;;5036962;28;20463;-56
2021/05/27 04:22:50;;;;;;;12.33;10.10;;;;;;;;;;5034947;28;20514;-56
2021/05/27 04:25:18;;;;;;;12.43;10.30;;;;;;;;;;5037167;28;20522;-59
2021/05/27 04:27:46;;;;;;;11.87;9.63;;;;;;;;;;5036945;28;20442;-57
2021/05/27 04:30:15;;;;;;;15.77;9.27;;;;;;;;;;5037037;28;20434;-58
2021/05/27 04:33:03;;;;;;;13.20;9.53;;;;;;;;;;5036972;28;20423;-60
2021/05/27 04:35:32;;;;;;;12.20;9.20;;;;;;;;;;5036743;28;20477;-50
2021/05/27 04:38:02;;;;;;;12.33;9.23;;;;;;;;;;5036869;28;20474;-52
2021/05/27 04:40:39;;;;;;;14.90;8.70;;;;;;;;;;5036390;28;20469;-52
2021/05/27 04:43:06;;;;;;;11.60;8.43;;;;;;;;;;5036417;28;20453;-55
2021/05/27 04:45:34;;;;;;;12.70;8.10;;;;;;;;;;5037020;28;20473;-54
2021/05/27 04:48:09;;;;;;;10.97;8.23;;;;;;;;;;5033579;28;20447;-58
2021/05/27 04:50:40;;;;;;;14.30;10.57;;;;;;;;;;5033571;28;20439;-56
2021/05/27 04:53:10;;;;;;;11.00;8.80;;;;;;;;;;5036330;28;20458;-57
2021/05/27 04:55:43;;;;;;;14.63;8.83;;;;;;;;;;5036017;28;20510;-54
2021/05/27 04:58:10;;;;;;;12.60;7.87;;;;;;;;;;5035012;28;20809;-58
2021/05/27 05:00:38;;;;;;;13.07;8.70;;;;;;;;;;5035629;28;20521;-56
2021/05/27 05:03:32;;;;;;;11.93;9.50;;;;;;;;;;5035595;28;20454;-59
2021/05/27 05:05:59;;;;;;;11.63;8.20;;;;;;;;;;5035778;28;20671;-54
2021/05/27 05:08:27;;;;;;;13.67;8.53;;;;;;;;;;5035715;28;20482;-58
2021/05/27 05:10:54;;;;;;;16.33;9.83;;;;;;;;;;5035877;28;20454;-54
2021/05/27 05:13:20;;;;;;;14.37;9.40;;;;;;;;;;5035371;28;20518;-54
2021/05/27 05:15:49;;;;;;;14.73;9.97;;;;;;;;;;5035916;28;20438;-56
2021/05/27 05:18:16;;;;;;;13.37;8.97;;;;;;;;;;5035078;28;20553;-56
2021/05/27 05:23:47;;;;;;;13.17;10.30;;;;;;;;;;5023519;28;20467;-56
2021/05/27 05:26:16;;;;;;;15.23;10.33;;;;;;;;;;5030527;28;20455;-57
2021/05/27 05:28:44;;;;;;;14.30;10.00;;;;;;;;;;5034022;28;20486;-52
2021/05/27 05:31:10;;;;;;;16.27;11.60;;;;;;;;;;5034103;28;20815;-56
2021/05/27 05:33:39;;;;;;;12.77;11.13;;;;;;;;;;5034286;28;20451;-57
2021/05/27 05:36:07;;;;;;;15.20;10.47;;;;;;;;;;5036967;28;20537;-52
2021/05/27 05:38:38;;;;;;;16.23;10.50;;;;;;;;;;5025459;28;20835;-59
2021/05/27 05:41:13;;;;;;;15.37;10.47;;;;;;;;;;5031583;28;20499;-58
2021/05/27 05:43:39;;;;;;;14.27;11.63;;;;;;;;;;5029563;28;20461;-57
2021/05/27 05:46:07;;;;;;;13.30;10.87;;;;;;;;;;5034096;28;20442;-58
2021/05/27 05:48:36;;;;;;;13.93;10.83;;;;;;;;;;5034591;28;20868;-55
2021/05/27 05:51:04;;;;;;;17.83;12.50;;;;;;;;;;5033464;28;20459;-55
2021/05/27 05:53:31;;;;;;;16.40;11.40;;;;;;;;;;5041175;28;20454;-52
2021/05/27 05:55:59;;;;;;;13.30;10.20;;;;;;;;;;5034493;28;20442;-52
2021/05/27 05:58:26;;;;;;;14.50;11.20;;;;;;;;;;5033869;28;20509;-50
2021/05/27 06:00:53;;;;;;;15.20;12.00;;;;;;;;;;5034247;28;20470;-56
2021/05/27 06:03:20;;;;;;;14.07;10.37;;;;;;;;;;5034348;28;20454;-54
2021/05/27 06:06:05;;;;;;;16.33;11.40;;;;;;;;;;5034407;28;20462;-54
2021/05/27 06:08:32;;;;;;;15.17;11.27;;;;;;;;;;5033928;28;20466;-49
2021/05/27 06:11:00;;;;;;;14.80;12.57;;;;;;;;;;5034085;28;20522;-53
2021/05/27 06:13:35;;;;;;;15.40;11.87;;;;;;;;;;5035045;28;20462;-51
2021/05/27 06:16:02;;;;;;;16.50;12.13;;;;;;;;;;5034722;28;20478;-56
2021/05/27 06:18:29;;;;;;;16.07;12.20;;;;;;;;;;5034400;28;20513;-54
2021/05/27 06:21:20;;;;;;;18.00;13.43;;;;;;;;;;5035166;28;20485;-52
2021/05/27 06:23:48;;;;;;;18.93;13.00;;;;;;;;;;5025221;28;20480;-51
2021/05/27 06:26:15;;;;;;;19.53;13.10;;;;;;;;;;5034345;28;20458;-56
2021/05/27 06:28:51;;;;;;;23.93;14.13;;;;;;;;;;5033665;28;20462;-53
2021/05/27 06:31:18;;;;;;;17.83;12.33;;;;;;;;;;5034655;28;20759;-58
2021/05/27 06:33:45;;;;;;;17.30;13.90;;;;;;;;;;5037369;28;20451;-55
2021/05/27 06:36:18;;;;;;;15.80;11.57;;;;;;;;;;5047356;28;20462;-59
2021/05/27 06:38:46;;;;;;;17.07;12.40;;;;;;;;;;5037849;28;20506;-56
2021/05/27 06:41:15;;;;;;;13.83;11.47;;;;;;;;;;5037530;28;20461;-56
2021/05/27 06:43:56;;;;;;;14.93;11.17;;;;;;;;;;5039068;28;20498;-55
2021/05/27 06:46:23;;;;;;;18.90;12.63;;;;;;;;;;5038077;28;20455;-56
2021/05/27 06:48:50;;;;;;;18.80;13.20;;;;;;;;;;5037753;28;20458;-58
2021/05/27 06:51:23;;;;;;;18.80;13.37;;;;;;;;;;5037044;28;20861;-50
2021/05/27 06:53:51;;;;;;;20.20;12.73;;;;;;;;;;5037376;28;20508;-56
2021/05/27 06:56:18;;;;;;;17.57;13.87;;;;;;;;;;5038680;28;20446;-53
2021/05/27 06:58:44;;;;;;;20.30;13.23;;;;;;;;;;5038235;28;20481;-53
2021/05/27 07:01:12;;;;;;;17.77;13.70;;;;;;;;;;5037808;28;20427;-51
2021/05/27 07:03:42;;;;;;;40.00;19.00;;;;;;;;;;5037283;28;20439;-55
2021/05/27 07:06:08;;;;;;;22.80;14.90;;;;;;;;;;5047620;28;20466;-57
2021/05/27 07:08:36;;;;;;;16.00;12.77;;;;;;;;;;5040394;28;20457;-54
2021/05/27 07:11:11;;;;;;;17.40;13.67;;;;;;;;;;5037854;28;20493;-51
2021/05/27 07:13:37;;;;;;;17.17;12.33;;;;;;;;;;5035035;28;20496;-52
2021/05/27 07:16:05;;;;;;;19.07;14.50;;;;;;;;;;5036873;28;20466;-54
2021/05/27 07:18:35;;;;;;;19.60;13.60;;;;;;;;;;5037413;28;20525;-46
2021/05/27 07:21:03;;;;;;;19.57;14.00;;;;;;;;;;5037521;28;20459;-53
2021/05/27 07:23:31;;;;;;;17.80;13.97;;;;;;;;;;5037413;28;20419;-54
2021/05/27 07:26:05;;;;;;;23.50;15.03;;;;;;;;;;5037229;28;20443;-57
2021/05/27 07:28:31;;;;;;;17.60;13.23;;;;;;;;;;5037430;28;20455;-52
2021/05/27 07:30:58;;;;;;;23.60;15.53;;;;;;;;;;5037375;28;20455;-50
2021/05/27 07:33:44;;;;;;;21.00;14.33;;;;;;;;;;5037533;28;20457;-57
2021/05/27 07:36:11;;;;;;;18.60;13.73;;;;;;;;;;5037028;28;20451;-53
2021/05/27 07:38:38;;;;;;;19.90;13.70;;;;;;;;;;5037241;28;20510;-56
2021/05/27 07:41:16;;;;;;;17.53;13.23;;;;;;;;;;5036544;28;20454;-54
2021/05/27 07:43:43;;;;;;;21.67;14.40;;;;;;;;;;5036293;28;20455;-56
2021/05/27 07:46:10;;;;;;;18.87;13.93;;;;;;;;;;5036772;28;20470;-57
2021/05/27 07:48:37;;;;;;;22.60;14.70;;;;;;;;;;5037127;28;20455;-53
2021/05/27 07:51:08;;;;;;;21.10;14.10;;;;;;;;;;5036637;28;20450;-55
2021/05/27 07:54:13;;;;;;;23.87;15.77;;;;;;;;;;5036246;28;20440;-54
2021/05/27 07:56:41;;;;;;;25.50;18.67;;;;;;;;;;5036582;28;20470;-58
2021/05/27 07:59:08;;;;;;;17.73;13.50;;;;;;;;;;5051056;28;20508;-58
2021/05/27 08:01:36;;;;;;;22.30;15.43;;;;;;;;;;5042410;28;20462;-56
2021/05/27 08:04:04;;;;;;;21.33;16.37;;;;;;;;;;5035217;28;20473;-53
2021/05/27 08:06:33;;;;;;;31.13;15.23;;;;;;;;;;5035318;28;20638;-55
2021/05/27 08:09:10;;;;;;;17.47;12.47;;;;;;;;;;5036163;28;20497;-57
2021/05/27 08:11:37;;;;;;;18.80;11.43;;;;;;;;;;5035277;28;20466;-58
2021/05/27 08:14:04;;;;;;;22.40;13.03;;;;;;;;;;5035524;28;20509;-53
2021/05/27 08:16:31;;;;;;;20.40;12.43;;;;;;;;;;5035538;28;20465;-52
2021/05/27 08:19:00;;;;;;;19.57;11.30;;;;;;;;;;5035509;28;20482;-57
2021/05/27 08:21:30;;;;;;;26.60;12.37;;;;;;;;;;5015234;28;20503;-57
2021/05/27 08:24:02;;;;;;;20.10;11.40;;;;;;;;;;5018695;28;20522;-55
2021/05/27 08:26:29;;;;;;;21.63;9.47;;;;;;;;;;5034804;28;20443;-59
2021/05/27 08:28:55;;;;;;;15.30;9.77;;;;;;;;;;5035848;28;20916;-55
2021/05/27 08:31:22;;;;;;;13.10;8.13;;;;;;;;;;5035572;28;20469;-57
2021/05/27 08:33:50;;;;;;;11.90;8.57;;;;;;;;;;5035069;28;20461;-55
2021/05/27 08:36:27;;;;;;;13.97;9.83;;;;;;;;;;5034638;28;20491;-56
2021/05/27 08:38:54;;;;;;;17.70;9.07;;;;;;;;;;5034489;28;20565;-56
2021/05/27 08:41:23;;;;;;;14.50;7.93;;;;;;;;;;5035795;28;20457;-55
2021/05/27 08:43:50;;;;;;;19.63;9.00;;;;;;;;;;5034976;28;20519;-57
2021/05/27 08:46:17;;;;;;;15.33;8.70;;;;;;;;;;5034203;28;20459;-58
2021/05/27 08:48:51;;;;;;;18.37;8.40;;;;;;;;;;5034503;28;20518;-57
2021/05/27 08:51:18;;;;;;;12.63;9.27;;;;;;;;;;5032711;28;20497;-57
2021/05/27 08:53:45;;;;;;;12.27;7.90;;;;;;;;;;5034936;28;20443;-57
2021/05/27 08:56:45;;;;;;;15.53;8.17;;;;;;;;;;5032383;28;20446;-50
2021/05/27 08:59:13;;;;;;;17.93;8.17;;;;;;;;;;5034320;28;20502;-54
2021/05/27 09:01:55;;;;;;;16.73;7.60;;;;;;;;;;5033582;28;20542;-55
2021/05/27 09:04:23;;;;;;;11.63;7.43;;;;;;;;;;5033963;28;20459;-55
2021/05/27 09:06:50;;;;;;;15.13;8.20;;;;;;;;;;5032548;28;20463;-57
2021/05/27 09:09:19;;;;;;;24.90;9.53;;;;;;;;;;5032697;28;20434;-56
2021/05/27 09:11:47;;;;;;;10.90;7.93;;;;;;;;;;5033293;28;20439;-52
2021/05/27 09:14:16;;;;;;;17.13;8.10;;;;;;;;;;5033076;28;20549;-60
2021/05/27 09:17:01;;;;;;;12.20;8.10;;;;;;;;;;5033953;28;20455;-56
2021/05/27 09:19:29;;;;;;;10.30;6.00;;;;;;;;;;5033309;28;20670;-52
2021/05/27 09:21:57;;;;;;;9.70;7.33;;;;;;;;;;5033362;28;20453;-50
2021/05/27 09:24:42;;;;;;;13.43;7.40;;;;;;;;;;5033800;28;20510;-53
2021/05/27 09:27:10;;;;;;;10.80;6.80;;;;;;;;;;5032376;28;20436;-54
2021/05/27 09:29:45;;;;;;;17.33;7.00;;;;;;;;;;5033668;28;20465;-52
2021/05/27 09:32:28;;;;;;;10.87;7.57;;;;;;;;;;5032989;28;20462;-53
2021/05/27 09:34:56;;;;;;;9.80;6.57;;;;;;;;;;5034333;28;20505;-54
2021/05/27 09:37:29;;;;;;;12.70;7.40;;;;;;;;;;5041768;28;20514;-56
2021/05/27 09:40:06;;;;;;;16.70;11.00;;;;;;;;;;5033391;28;20535;-57
2021/05/27 09:42:48;;;;;;;13.23;7.00;;;;;;;;;;5022793;28;20521;-52
2021/05/27 09:45:17;;;;;;;19.40;8.33;;;;;;;;;;5032271;28;20486;-55
2021/05/27 09:47:44;;;;;;;11.03;8.10;;;;;;;;;;5033044;28;20509;-59
2021/05/27 09:50:11;;;;;;;18.40;8.90;;;;;;;;;;5023533;28;20451;-53
2021/05/27 09:52:47;;;;;;;16.40;8.80;;;;;;;;;;5031352;28;20442;-58
2021/05/27 09:55:16;;;;;;;17.37;8.03;;;;;;;;;;5035061;28;20468;-58
2021/05/27 09:57:43;;;;;;;15.00;8.67;;;;;;;;;;5037924;28;20549;-54
2021/05/27 10:00:26;;;;;;;15.23;9.97;;;;;;;;;;5030757;28;20471;-58
2021/05/27 10:02:53;;;;;;;25.30;10.57;;;;;;;;;;5032326;28;20502;-56
2021/05/27 10:05:20;;;;;;;13.30;9.03;;;;;;;;;;5031714;28;20866;-53
2021/05/27 10:07:49;;;;;;;11.53;8.67;;;;;;;;;;5033952;28;20463;-57
2021/05/27 10:10:16;;;;;;;13.73;9.10;;;;;;;;;;5037490;28;20442;-57
2021/05/27 10:12:51;;;;;;;17.03;9.37;;;;;;;;;;5038649;28;20470;-55
2021/05/27 10:15:19;;;;;;;11.53;7.90;;;;;;;;;;5037692;28;20446;-59
2021/05/27 10:17:47;;;;;;;16.63;8.93;;;;;;;;;;5036574;28;20485;-56
2021/05/27 10:20:16;;;;;;;9.93;7.57;;;;;;;;;;5031556;28;20455;-55
2021/05/27 10:22:46;;;;;;;14.83;9.33;;;;;;;;;;5034822;28;20486;-57
2021/05/27 10:25:15;;;;;;;12.63;7.83;;;;;;;;;;5037389;28;20455;-55
2021/05/27 10:27:43;;;;;;;11.93;8.47;;;;;;;;;;5034992;28;20451;-54
2021/05/27 10:30:10;;;;;;;14.17;8.07;;;;;;;;;;5034095;28;20463;-53
2021/05/27 10:32:39;;;;;;;12.40;7.77;;;;;;;;;;5034588;28;20511;-52
2021/05/27 10:35:08;;;;;;;16.73;7.20;;;;;;;;;;5037989;28;20465;-56
2021/05/27 10:37:48;;;;;;;11.30;6.63;;;;;;;;;;5039005;28;20569;-54
2021/05/27 10:40:33;;;;;;;14.03;8.20;;;;;;;;;;5054375;28;20499;-57
2021/05/27 10:43:11;;;;;;;14.93;7.30;;;;;;;;;;5041235;28;20439;-59
2021/05/27 10:45:54;;;;;;;10.53;7.83;;;;;;;;;;5038594;28;20450;-59
2021/05/27 10:48:27;;;;;;;15.50;7.20;;;;;;;;;;5039543;28;20488;-52
2021/05/27 10:51:12;;;;;;;8.37;6.87;;;;;;;;;;5038265;28;20454;-57
2021/05/27 10:54:03;;;;;;;16.27;8.17;;;;;;;;;;5038391;28;20461;-58
2021/05/27 10:56:44;;;;;;;14.33;7.93;;;;;;;;;;5058478;28;20446;-54
2021/05/27 10:59:12;;;;;;;21.67;7.67;;;;;;;;;;5057609;28;20482;-59
2021/05/27 11:01:57;;;;;;;12.97;6.90;;;;;;;;;;5052257;28;20474;-60
2021/05/27 11:04:34;;;;;;;16.77;7.37;;;;;;;;;;5049702;28;20447;-57
2021/05/27 11:07:12;;;;;;;11.97;7.37;;;;;;;;;;5038432;28;20505;-54
2021/05/27 11:09:40;;;;;;;13.60;9.03;;;;;;;;;;5038422;28;20489;-59
2021/05/27 11:12:11;;;;;;;12.77;8.57;;;;;;;;;;5038095;28;20454;-57
2021/05/27 11:14:40;;;;;;;12.33;8.10;;;;;;;;;;5038468;28;20446;-61
2021/05/27 11:17:25;;;;;;;23.33;8.00;;;;;;;;;;5037948;28;20466;-58
2021/05/27 11:19:57;;;;;;;9.50;7.17;;;;;;;;;;5037659;28;20451;-58
2021/05/27 11:23:01;;;;;;;16.10;7.00;;;;;;;;;;5038381;28;20459;-56
2021/05/27 11:25:37;;;;;;;10.40;7.10;;;;;;;;;;5025978;28;20455;-57
2021/05/27 11:28:22;;;;;;;19.93;8.53;;;;;;;;;;5018133;28;20863;-53
2021/05/27 11:31:08;;;;;;;19.57;9.13;;;;;;;;;;5037625;28;20558;-56
2021/05/27 11:33:39;;;;;;;14.23;8.20;;;;;;;;;;5036876;28;20451;-51
2021/05/27 11:36:12;;;;;;;10.20;7.60;;;;;;;;;;5037403;28;20450;-55
2021/05/27 11:38:40;;;;;;;15.10;8.23;;;;;;;;;;5036897;28;20773;-56
2021/05/27 11:41:08;;;;;;;20.40;9.20;;;;;;;;;;5037257;28;20473;-55
2021/05/27 11:43:37;;;;;;;18.57;8.83;;;;;;;;;;5036980;28;20466;-55
2021/05/27 11:46:09;;;;;;;10.80;6.80;;;;;;;;;;5036669;28;20435;-54
2021/05/27 11:48:57;;;;;;;12.20;8.07;;;;;;;;;;5037523;28;20439;-57
2021/05/27 11:51:54;;;;;;;8.80;7.20;;;;;;;;;;5037691;28;20447;-58
2021/05/27 11:54:30;;;;;;;17.77;8.70;;;;;;;;;;5037430;28;20470;-57
2021/05/27 11:57:08;;;;;;;11.73;7.83;;;;;;;;;;5037968;28;20442;-52
2021/05/27 11:59:37;;;;;;;18.93;8.03;;;;;;;;;;5037997;28;20438;-53
2021/05/27 12:02:04;;;;;;;12.83;7.63;;;;;;;;;;5036599;28;20485;-60
2021/05/27 12:04:32;;;;;;;11.57;7.10;;;;;;;;;;5037869;28;20438;-57
2021/05/27 12:07:17;;;;;;;16.23;8.47;;;;;;;;;;5035090;28;20456;-55
2021/05/27 12:09:47;;;;;;;14.23;7.67;;;;;;;;;;5037663;28;20526;-57
2021/05/27 12:12:24;;;;;;;10.03;7.40;;;;;;;;;;5026933;28;20470;-55
2021/05/27 12:14:53;;;;;;;8.47;7.17;;;;;;;;;;5036684;28;20443;-56
2021/05/27 12:17:22;;;;;;;9.40;6.47;;;;;;;;;;5033061;28;20518;-56
2021/05/27 12:20:27;;;;;;;12.17;6.67;;;;;;;;;;5036854;28;20463;-51
2021/05/27 12:22:55;;;;;;;16.97;7.80;;;;;;;;;;5036435;28;20487;-51
2021/05/27 12:25:25;;;;;;;12.57;7.60;;;;;;;;;;5048497;22;20438;-57
2021/05/27 12:28:16;;;;;;;11.63;8.67;;;;;;;;;;5018179;28;20452;-55
2021/05/27 12:31:07;;;;;;;12.83;8.27;;;;;;;;;;5016159;28;20486;-59
2021/05/27 12:34:07;;;;;;;10.47;7.20;;;;;;;;;;5038167;28;20442;-55
2021/05/27 12:36:53;;;;;;;12.57;8.83;;;;;;;;;;5044244;28;20442;-55
2021/05/27 12:39:43;;;;;;;13.07;6.80;;;;;;;;;;5054111;28;20479;-58
2021/05/27 12:42:18;;;;;;;10.70;6.83;;;;;;;;;;5035272;28;20486;-51
2021/05/27 12:44:49;;;;;;;13.47;7.83;;;;;;;;;;5026849;28;20438;-56
2021/05/27 12:47:33;;;;;;;11.40;6.77;;;;;;;;;;5035461;28;20482;-57
2021/05/27 12:50:25;;;;;;;10.60;6.87;;;;;;;;;;5034307;28;20684;-51
2021/05/27 12:52:57;;;;;;;14.77;7.60;;;;;;;;;;5043241;28;20462;-51
2021/05/27 12:55:40;;;;;;;23.93;16.57;;;;;;;;;;5036641;28;20474;-56
2021/05/27 12:58:18;;;;;;;13.87;9.67;;;;;;;;;;5035231;28;20478;-52
2021/05/27 13:00:49;;;;;;;17.07;7.60;;;;;;;;;;5036608;28;20443;-57
2021/05/27 13:03:17;;;;;;;10.97;7.43;;;;;;;;;;5036206;28;20454;-61
2021/05/27 13:05:46;;;;;;;14.90;7.77;;;;;;;;;;5053060;28;20465;-53
2021/05/27 13:08:15;;;;;;;13.63;7.83;;;;;;;;;;5056058;28;20454;-55
2021/05/27 13:10:42;;;;;;;11.73;7.97;;;;;;;;;;5056117;28;20450;-54
2021/05/27 13:13:10;;;;;;;10.43;6.70;;;;;;;;;;5050435;28;20511;-57
2021/05/27 13:15:45;;;;;;;11.90;8.30;;;;;;;;;;5035994;28;20506;-53
2021/05/27 13:18:12;;;;;;;17.33;9.10;;;;;;;;;;5035788;28;20478;-58
2021/05/27 13:20:57;;;;;;;14.90;8.43;;;;;;;;;;5035969;28;20441;-57
2021/05/27 13:23:25;;;;;;;8.60;6.60;;;;;;;;;;5036143;28;20486;-55
2021/05/27 13:26:07;;;;;;;13.73;6.90;;;;;;;;;;5035689;28;20431;-54
2021/05/27 13:28:34;;;;;;;13.77;6.20;;;;;;;;;;5045509;28;20724;-57
2021/05/27 13:31:01;;;;;;;10.53;6.40;;;;;;;;;;5050284;28;20450;-57
2021/05/27 13:33:28;;;;;;;12.50;5.60;;;;;;;;;;5036458;28;20459;-53
2021/05/27 13:35:57;;;;;;;8.90;4.70;;;;;;;;;;5036650;28;20454;-55
2021/05/27 13:38:30;;;;;;;10.47;5.10;;;;;;;;;;5042262;28;20475;-59
2021/05/27 13:40:57;;;;;;;10.80;4.90;;;;;;;;;;5031015;28;20469;-55
2021/05/27 13:43:29;;;;;;;9.93;5.67;;;;;;;;;;5036145;28;20446;-49
2021/05/27 13:45:57;;;;;;;8.23;5.03;;;;;;;;;;5034761;28;20443;-52
2021/05/27 13:48:26;;;;;;;6.60;4.40;;;;;;;;;;5030418;28;20472;-57
2021/05/27 13:50:53;;;;;;;7.90;4.93;;;;;;;;;;5034253;28;20521;-56
2021/05/27 13:53:26;;;;;;;7.43;4.90;;;;;;;;;;5034728;28;20647;-56
2021/05/27 13:56:19;;;;;;;7.67;4.80;;;;;;;;;;5027018;28;20734;-53
2021/05/27 13:58:48;;;;;;;7.20;4.73;;;;;;;;;;5033987;28;20529;-58
2021/05/27 14:01:22;;;;;;;7.37;4.57;;;;;;;;;;5035448;28;20450;-59
2021/05/27 14:03:49;;;;;;;9.90;5.50;;;;;;;;;;5034875;28;20459;-55
2021/05/27 14:06:16;;;;;;;10.30;6.23;;;;;;;;;;5035869;28;20459;-53
2021/05/27 14:08:44;;;;;;;7.70;4.27;;;;;;;;;;5034920;28;20454;-56
2021/05/27 14:11:12;;;;;;;8.20;4.90;;;;;;;;;;5035284;28;20443;-57
2021/05/27 14:13:51;;;;;;;11.87;5.07;;;;;;;;;;5035926;28;20419;-55
2021/05/27 14:16:17;;;;;;;8.40;5.10;;;;;;;;;;5035666;28;20458;-52
2021/05/27 14:18:46;;;;;;;12.60;5.30;;;;;;;;;;5031418;28;20491;-59
2021/05/27 14:21:14;;;;;;;12.33;4.43;;;;;;;;;;5034970;28;20482;-58
2021/05/27 14:24:18;;;;;;;7.10;5.17;;;;;;;;;;5033480;28;20461;-53
2021/05/27 14:26:55;;;;;;;9.50;5.10;;;;;;;;;;5029778;28;20627;-59
2021/05/27 14:29:23;;;;;;;13.17;5.00;;;;;;;;;;5031708;28;20454;-56
2021/05/27 14:31:53;;;;;;;12.07;5.20;;;;;;;;;;5032500;28;20485;-53
2021/05/27 14:34:21;;;;;;;9.93;5.07;;;;;;;;;;5031778;28;20454;-58
2021/05/27 14:36:53;;;;;;;8.97;5.40;;;;;;;;;;5032464;28;20475;-57
2021/05/27 14:39:27;;;;;;;8.17;5.30;;;;;;;;;;5033012;28;20528;-58
2021/05/27 14:42:03;;;;;;;14.97;5.47;;;;;;;;;;5033147;28;20428;-57
2021/05/27 14:44:32;;;;;;;7.73;5.50;;;;;;;;;;5035628;28;20427;-58
2021/05/27 14:47:01;;;;;;;10.73;6.43;;;;;;;;;;5034740;28;20454;-52
2021/05/27 14:49:31;;;;;;;9.73;5.80;;;;;;;;;;5035752;28;20458;-55
2021/05/27 14:52:00;;;;;;;6.93;5.03;;;;;;;;;;5035464;28;20462;-56
2021/05/27 14:54:28;;;;;;;10.70;5.30;;;;;;;;;;5037463;28;20447;-55
2021/05/27 14:56:58;;;;;;;11.13;5.40;;;;;;;;;;5038826;28;20475;-55
2021/05/27 14:59:25;;;;;;;13.97;6.50;;;;;;;;;;5037756;28;20491;-56
2021/05/27 15:01:53;;;;;;;12.47;6.47;;;;;;;;;;5039175;28;20459;-54
2021/05/27 15:04:25;;;;;;;10.33;6.70;;;;;;;;;;5038972;28;20490;-54
2021/05/27 15:06:52;;;;;;;11.90;7.27;;;;;;;;;;5039210;28;20461;-52
2021/05/27 15:09:19;;;;;;;9.10;6.33;;;;;;;;;;5038666;28;20466;-56